Time;durP1;ratioP1;P1;durP2;ratioP2;P2;SDS_P1;SDS_P2;PMS_P1;PMS_P2;Temp;Humidity;BMP_temperature;BMP_pressure;BME280_temperature;BME280_humidity;BME280_pressure;Samples;Min_cycle;Max_cycle;Signal;HPM_P1;HPM_P2
2023/01/25 00:00:09;;;;;;;31.40;10.85;;;;;;;-0.89;100.00;96895.00;4947987;28;20047;-78
2023/01/25 00:02:55;;;;;;;27.20;9.82;;;;;;;-0.96;100.00;96899.22;4944718;28;20059;-78
2023/01/25 00:05:21;;;;;;;30.45;10.32;;;;;;;-0.95;100.00;96895.66;4950524;28;20047;-77
2023/01/25 00:07:46;;;;;;;25.88;9.55;;;;;;;-0.95;100.00;96898.25;4964143;28;20035;-78
2023/01/25 00:10:12;;;;;;;26.80;10.25;;;;;;;-1.03;100.00;96890.50;4960851;28;20842;-78
2023/01/25 00:12:37;;;;;;;34.50;11.13;;;;;;;-0.99;100.00;96904.69;4952863;28;20039;-78
2023/01/25 00:15:03;;;;;;;24.10;10.43;;;;;;;-1.02;100.00;96894.69;4947356;28;20050;-78
2023/01/25 00:17:29;;;;;;;25.45;10.38;;;;;;;-0.98;100.00;96893.38;4950926;28;20086;-78
2023/01/25 00:19:54;;;;;;;28.80;10.30;;;;;;;-0.99;100.00;96898.72;4947935;28;20055;-78
2023/01/25 00:22:20;;;;;;;23.85;9.30;;;;;;;-0.97;100.00;96897.59;4949276;28;20541;-78
2023/01/25 00:24:45;;;;;;;23.33;8.93;;;;;;;-0.93;100.00;96893.72;4964761;28;20402;-78
2023/01/25 00:27:11;;;;;;;27.88;11.27;;;;;;;-1.01;100.00;96896.28;4948120;28;20039;-78
2023/01/25 00:29:36;;;;;;;27.83;11.65;;;;;;;-1.07;100.00;96896.94;4947229;28;20531;-79
2023/01/25 00:32:11;;;;;;;27.00;10.70;;;;;;;-0.95;100.00;96894.84;4950540;28;20055;-78
2023/01/25 00:34:41;;;;;;;;;;;;;;;-1.03;100.00;96893.06;4948462;28;20091;-77
2023/01/25 00:37:16;;;;;;;25.35;9.90;;;;;;;-0.98;100.00;96895.16;4961239;28;19926;-78
2023/01/25 00:39:41;;;;;;;;;;;;;;;-1.01;100.00;96891.13;4946979;28;20202;-78
2023/01/25 00:42:09;;;;;;;32.92;10.20;;;;;;;-1.07;100.00;96886.59;4951011;28;19929;-78
2023/01/25 00:44:35;;;;;;;30.55;10.90;;;;;;;-1.01;100.00;96885.94;4949259;28;20044;-78
2023/01/25 00:47:01;;;;;;;29.58;9.77;;;;;;;-1.04;100.00;96888.88;4948717;28;20051;-78
2023/01/25 00:49:27;;;;;;;35.50;12.85;;;;;;;-1.08;100.00;96887.56;4963643;28;20039;-78
2023/01/25 00:51:57;;;;;;;24.30;9.85;;;;;;;-1.03;100.00;96877.56;4945395;28;20044;-78
2023/01/25 00:54:22;;;;;;;29.60;10.05;;;;;;;-1.03;100.00;96881.91;4950757;28;20039;-78
2023/01/25 00:56:51;;;;;;;29.88;10.73;;;;;;;-1.02;100.00;96884.34;4950498;28;20043;-79
2023/01/25 00:59:16;;;;;;;36.33;11.73;;;;;;;-1.11;100.00;96890.47;4950328;28;20495;-79
2023/01/25 01:01:43;;;;;;;30.85;12.07;;;;;;;-1.13;100.00;96889.84;4952249;28;20106;-79
2023/01/25 01:04:08;;;;;;;32.08;10.20;;;;;;;-1.10;100.00;96886.94;4950504;28;20043;-79
2023/01/25 01:06:35;;;;;;;33.95;11.30;;;;;;;-1.11;100.00;96890.47;4952990;28;20050;-79
2023/01/25 01:09:01;;;;;;;33.63;11.70;;;;;;;-1.10;100.00;96886.94;4967975;28;20047;-79
2023/01/25 01:11:26;;;;;;;33.70;12.82;;;;;;;-1.11;100.00;96886.09;4951197;28;20031;-79
2023/01/25 01:13:52;;;;;;;33.75;12.25;;;;;;;-1.07;100.00;96894.34;4950872;28;20098;-79
2023/01/25 01:16:17;;;;;;;35.28;11.90;;;;;;;-1.12;100.00;96888.84;4952437;28;20122;-79
2023/01/25 01:18:44;;;;;;;38.17;12.68;;;;;;;-1.01;100.00;96896.28;4953746;28;20043;-79
2023/01/25 01:21:12;;;;;;;36.35;12.80;;;;;;;-1.07;100.00;96886.59;4949562;28;20090;-79
2023/01/25 01:23:38;;;;;;;42.13;12.80;;;;;;;-1.08;100.00;96887.56;4950829;28;20138;-78
2023/01/25 01:26:07;;;;;;;35.78;11.57;;;;;;;-1.08;100.00;96884.97;4951469;28;20051;-79
2023/01/25 01:28:34;;;;;;;32.65;12.18;;;;;;;-1.13;100.00;96882.09;4953578;28;20745;-79
2023/01/25 01:31:04;;;;;;;35.25;12.18;;;;;;;-1.08;100.00;96879.81;4949991;28;20392;-78
2023/01/25 01:33:29;;;;;;;34.55;13.10;;;;;;;-1.08;100.00;96879.81;4950310;28;20047;-78
2023/01/25 01:35:55;;;;;;;33.80;11.68;;;;;;;-1.09;100.00;96863.53;4967370;28;20423;-78
2023/01/25 01:38:20;;;;;;;29.52;11.48;;;;;;;-1.14;100.00;96870.13;4952649;28;20043;-78
2023/01/25 01:40:47;;;;;;;27.15;10.73;;;;;;;-1.18;100.00;96879.97;4950337;28;20043;-78
2023/01/25 01:43:21;;;;;;;31.58;12.40;;;;;;;-1.17;100.00;96871.25;4952199;28;20074;-78
2023/01/25 01:45:48;;;;;;;29.30;11.13;;;;;;;-1.22;100.00;96868.38;4951707;28;20043;-77
2023/01/25 01:48:14;;;;;;;32.20;10.80;;;;;;;-1.17;100.00;96870.47;4953008;28;20122;-78
2023/01/25 01:50:39;;;;;;;28.25;10.82;;;;;;;-1.22;100.00;96864.00;4952245;28;20426;-78
2023/01/25 01:53:05;;;;;;;33.88;12.05;;;;;;;-1.20;100.00;96871.59;4950393;28;20046;-78
2023/01/25 01:55:31;;;;;;;37.50;12.50;;;;;;;-1.15;100.00;96876.25;4968406;28;20090;-78
2023/01/25 01:57:58;;;;;;;33.50;11.63;;;;;;;-1.17;100.00;96875.63;4951820;28;20039;-78
2023/01/25 02:00:28;;;;;;;28.17;10.73;;;;;;;-1.12;100.00;96878.53;4952607;28;20043;-78
2023/01/25 02:02:54;;;;;;;27.48;10.73;;;;;;;-1.20;100.00;96871.59;4943127;28;20055;-78
2023/01/25 02:05:40;;;;;;;28.63;10.57;;;;;;;-1.15;100.00;96869.34;4944934;28;20047;-78
2023/01/25 02:08:10;;;;;;;28.38;10.65;;;;;;;-1.17;100.00;96867.88;4950206;28;20541;-78
2023/01/25 02:10:37;;;;;;;30.98;11.30;;;;;;;-1.20;100.00;96870.78;4950729;28;20043;-78
2023/01/25 02:13:02;;;;;;;35.25;12.05;;;;;;;-1.13;100.00;96872.56;4945031;28;20550;-78
2023/01/25 02:15:40;;;;;;;39.92;11.45;;;;;;;-1.14;100.00;96870.13;4951310;28;20042;-79
2023/01/25 02:18:06;;;;;;;31.88;12.18;;;;;;;-1.15;100.00;96863.34;4950540;28;20126;-78
2023/01/25 02:20:37;;;;;;;28.42;11.85;;;;;;;-1.12;100.00;96866.44;4966399;28;20067;-79
2023/01/25 02:23:31;;;;;;;29.67;10.80;;;;;;;-1.16;100.00;96862.56;4950507;28;20430;-78
2023/01/25 02:26:00;;;;;;;30.85;10.85;;;;;;;-1.15;100.00;96868.50;4944943;28;20043;-79
2023/01/25 02:28:33;;;;;;;31.88;10.90;;;;;;;-1.23;100.00;96862.38;4949231;28;20090;-78
2023/01/25 02:30:59;;;;;;;33.70;11.18;;;;;;;-1.19;100.00;96862.06;4965145;28;20039;-78
2023/01/25 02:33:26;;;;;;;32.67;11.10;;;;;;;-1.17;100.00;96860.94;4965315;28;20530;-80
2023/01/25 02:36:04;;;;;;;34.55;12.15;;;;;;;-1.19;100.00;96862.06;4949721;28;20042;-79
2023/01/25 02:38:33;;;;;;;28.90;10.20;;;;;;;-1.14;100.00;96864.97;4951444;28;20050;-78
2023/01/25 02:41:05;;;;;;;35.50;11.38;;;;;;;-1.25;100.00;96859.16;4950202;28;20631;-78
2023/01/25 02:43:33;;;;;;;31.45;11.18;;;;;;;-1.25;100.00;96861.75;4964131;28;20495;-78
2023/01/25 02:46:09;;;;;;;32.13;11.55;;;;;;;-1.24;100.00;96855.59;4949527;28;20059;-78
2023/01/25 02:48:35;;;;;;;32.53;10.90;;;;;;;-1.18;100.00;96858.50;4952020;28;20462;-78
2023/01/25 02:51:01;;;;;;;38.10;11.65;;;;;;;-1.22;100.00;96850.28;4948069;28;20043;-78
2023/01/25 02:53:26;;;;;;;26.25;10.70;;;;;;;-1.24;100.00;96850.44;4951655;28;20422;-79
2023/01/25 02:55:52;;;;;;;27.20;10.15;;;;;;;-1.19;100.00;96846.56;4964097;28;20106;-77
2023/01/25 02:58:17;;;;;;;30.25;10.50;;;;;;;-1.21;100.00;96854.47;4948669;28;20118;-78
2023/01/25 03:00:43;;;;;;;31.50;10.13;;;;;;;-1.17;100.00;96847.22;4948634;28;20062;-78
2023/01/25 03:03:08;;;;;;;27.75;11.15;;;;;;;-1.30;100.00;96845.91;4963279;28;20723;-78
2023/01/25 03:05:34;;;;;;;33.28;10.98;;;;;;;-1.27;100.00;96845.59;4968387;28;20051;-78
2023/01/25 03:08:00;;;;;;;25.98;10.55;;;;;;;-1.24;100.00;96841.88;4947347;28;20035;-78
2023/01/25 03:10:25;;;;;;;29.13;9.65;;;;;;;-1.27;100.00;96845.59;4950492;28;20050;-77
2023/01/25 03:12:50;;;;;;;26.35;9.30;;;;;;;-1.27;100.00;96845.59;4965377;28;20046;-78
2023/01/25 03:15:16;;;;;;;30.48;10.35;;;;;;;-1.32;100.00;96842.69;4949089;28;20510;-78
2023/01/25 03:17:42;;;;;;;28.08;10.55;;;;;;;-1.35;100.00;96817.19;4946757;28;20419;-79
2023/01/25 03:20:08;;;;;;;30.90;10.30;;;;;;;-1.27;100.00;96840.41;4951896;28;20043;-78
2023/01/25 03:22:33;;;;;;;32.25;11.05;;;;;;;-1.33;100.00;96833.31;4950742;28;20719;-78
2023/01/25 03:24:59;;;;;;;30.30;11.20;;;;;;;-1.31;100.00;96839.13;4952291;28;20043;-79
2023/01/25 03:27:24;;;;;;;27.90;10.20;;;;;;;-1.29;100.00;96829.47;4950043;28;20039;-79
2023/01/25 03:29:50;;;;;;;23.75;8.95;;;;;;;-1.29;100.00;96826.88;4947621;28;20069;-78
2023/01/25 03:32:15;;;;;;;23.08;8.85;;;;;;;-1.20;100.00;96829.47;4950097;28;20051;-79
2023/01/25 03:34:41;;;;;;;26.42;9.63;;;;;;;-1.32;100.00;96827.19;4952798;28;20044;-79
2023/01/25 03:37:06;;;;;;;25.40;10.02;;;;;;;-1.34;100.00;96834.28;4949135;28;20039;-79
2023/01/25 03:39:32;;;;;;;25.30;10.40;;;;;;;-1.33;100.00;96838.50;4950164;28;20043;-79
2023/01/25 03:41:57;;;;;;;29.58;9.88;;;;;;;-1.31;100.00;96833.97;4950323;28;20355;-79
2023/01/25 03:44:23;;;;;;;21.05;7.72;;;;;;;-1.29;100.00;96826.88;4950420;28;20071;-78
2023/01/25 03:46:48;;;;;;;21.83;8.77;;;;;;;-1.36;100.00;96825.91;4950413;28;20590;-78
2023/01/25 03:49:14;;;;;;;22.20;8.90;;;;;;;-1.38;100.00;96822.66;4950020;28;20082;-78
2023/01/25 03:51:40;;;;;;;27.00;9.13;;;;;;;-1.32;100.00;96827.19;4949141;28;20035;-80
2023/01/25 03:54:07;;;;;;;26.17;8.93;;;;;;;-1.36;100.00;96814.78;4951573;28;20042;-80
2023/01/25 03:56:32;;;;;;;17.60;8.00;;;;;;;-1.32;100.00;96824.63;4950841;28;20569;-79
2023/01/25 03:58:58;;;;;;;21.95;8.45;;;;;;;-1.36;100.00;96820.75;4949266;28;20040;-80
2023/01/25 04:01:24;;;;;;;20.00;8.48;;;;;;;-1.35;100.00;96822.38;4948123;28;20047;-79
2023/01/25 04:03:49;;;;;;;22.52;8.98;;;;;;;-1.33;100.00;96823.00;4948529;28;20043;-80
2023/01/25 04:06:15;;;;;;;24.33;8.73;;;;;;;-1.35;100.00;96821.53;4949357;28;20036;-79
2023/01/25 04:08:40;;;;;;;26.98;9.35;;;;;;;-1.30;100.00;96830.41;4951032;28;20491;-80
2023/01/25 04:11:09;;;;;;;22.35;8.68;;;;;;;-1.29;100.00;96833.81;4961801;28;20043;-80
2023/01/25 04:13:35;;;;;;;20.67;8.23;;;;;;;-1.35;100.00;96817.19;4946414;28;20047;-80
2023/01/25 04:16:10;;;;;;;25.13;8.55;;;;;;;-1.27;100.00;96817.19;4952352;28;20384;-80
2023/01/25 04:18:36;;;;;;;24.90;9.48;;;;;;;-1.37;100.00;96818.31;4947123;28;20044;-80
2023/01/25 04:21:02;;;;;;;28.40;9.43;;;;;;;-1.33;100.00;96825.56;4964019;28;20058;-80
2023/01/25 04:23:28;;;;;;;27.85;9.43;;;;;;;-1.33;100.00;96825.56;4946918;28;20040;-81
2023/01/25 04:25:57;;;;;;;27.02;9.95;;;;;;;-1.35;100.00;96817.19;4966112;28;20570;-80
2023/01/25 04:28:24;;;;;;;27.95;9.82;;;;;;;-1.31;100.00;96807.34;4951156;28;20097;-80
2023/01/25 04:30:49;;;;;;;27.40;10.77;;;;;;;-1.39;100.00;96787.50;4953171;28;20047;-80
2023/01/25 04:33:15;;;;;;;32.00;9.95;;;;;;;-1.34;100.00;96808.47;4949957;28;20090;-80
2023/01/25 04:35:42;;;;;;;25.27;8.95;;;;;;;-1.32;100.00;96806.53;4952696;28;20439;-80
2023/01/25 04:38:08;;;;;;;30.17;10.60;;;;;;;-1.33;100.00;96815.25;4951213;28;20040;-80
2023/01/25 04:40:34;;;;;;;28.08;10.38;;;;;;;-1.36;100.00;96805.25;4954008;28;20050;-80
2023/01/25 04:42:59;;;;;;;28.42;9.27;;;;;;;-1.37;100.00;96808.78;4952533;28;20418;-79
2023/01/25 04:45:25;;;;;;;26.85;9.85;;;;;;;-1.35;100.00;96804.28;4953621;28;20124;-79
2023/01/25 04:48:00;;;;;;;31.02;9.50;;;;;;;-1.43;100.00;96799.13;4950879;28;20039;-80
2023/01/25 04:50:26;;;;;;;23.60;9.02;;;;;;;-1.36;100.00;96800.09;4951280;28;20435;-80
2023/01/25 04:52:52;;;;;;;28.73;9.38;;;;;;;-1.38;100.00;96796.84;4966311;28;20921;-80
2023/01/25 04:55:18;;;;;;;29.27;9.82;;;;;;;-1.45;100.00;96788.94;4952899;28;20097;-80
2023/01/25 04:57:43;;;;;;;27.00;9.57;;;;;;;-1.42;100.00;96785.25;4952475;28;20130;-80
2023/01/25 05:00:10;;;;;;;33.38;10.13;;;;;;;-1.41;100.00;96786.84;4950340;28;20043;-80
2023/01/25 05:02:36;;;;;;;28.27;10.88;;;;;;;-1.46;100.00;96783.94;4951487;28;20077;-80
2023/01/25 05:05:02;;;;;;;20.27;7.85;;;;;;;-1.47;100.00;96766.84;4966457;28;20647;-80
2023/01/25 05:07:28;;;;;;;26.10;9.07;;;;;;;-1.45;100.00;96780.38;4955811;28;20043;-80
2023/01/25 05:09:53;;;;;;;30.40;8.68;;;;;;;-1.46;100.00;96776.19;4951502;28;20494;-80
2023/01/25 05:12:19;;;;;;;26.00;8.57;;;;;;;-1.43;100.00;96773.28;4952062;28;20047;-80
2023/01/25 05:14:45;;;;;;;26.10;9.60;;;;;;;-1.38;100.00;96781.34;4950842;28;20044;-80
2023/01/25 05:17:10;;;;;;;24.23;8.70;;;;;;;-1.40;100.00;96772.97;4953869;28;20047;-80
2023/01/25 05:19:36;;;;;;;22.10;8.07;;;;;;;-1.45;100.00;96775.22;4967539;28;20419;-80
2023/01/25 05:22:06;;;;;;;27.25;9.55;;;;;;;-1.50;100.00;96774.91;4953948;28;20097;-80
2023/01/25 05:24:33;;;;;;;22.42;8.85;;;;;;;-1.44;100.00;96771.66;4951072;28;20055;-80
2023/01/25 05:27:02;;;;;;;23.23;8.52;;;;;;;-1.45;100.00;96770.06;4968537;28;20070;-80
2023/01/25 05:29:34;;;;;;;24.75;8.73;;;;;;;-1.38;100.00;96765.84;4952919;28;20035;-80
2023/01/25 05:32:01;;;;;;;22.05;8.55;;;;;;;-1.48;100.00;96770.38;4950355;28;20039;-80
2023/01/25 05:34:27;;;;;;;21.15;8.15;;;;;;;-1.49;100.00;96763.63;4951425;28;20589;-80
2023/01/25 05:36:53;;;;;;;22.60;8.00;;;;;;;-1.44;100.00;96774.25;4955389;28;20121;-80
2023/01/25 05:39:18;;;;;;;18.83;8.05;;;;;;;-1.50;100.00;96772.31;4973251;28;20050;-79
2023/01/25 05:41:44;;;;;;;21.85;8.10;;;;;;;-1.47;100.00;96761.66;4968116;28;20574;-80
2023/01/25 05:44:10;;;;;;;21.42;8.35;;;;;;;-1.46;100.00;96765.88;4971867;28;20035;-80
2023/01/25 05:46:35;;;;;;;20.38;7.95;;;;;;;-1.48;100.00;96765.22;4971354;28;20043;-80
2023/01/25 05:49:01;;;;;;;16.67;7.50;;;;;;;-1.50;100.00;96764.59;4971597;28;20059;-79
2023/01/25 05:51:27;;;;;;;19.40;7.78;;;;;;;-1.51;100.00;96770.72;4974463;28;20043;-79
2023/01/25 05:53:55;;;;;;;24.35;8.18;;;;;;;-1.37;100.00;96767.47;4972168;28;20074;-80
2023/01/25 05:56:22;;;;;;;19.58;8.05;;;;;;;-1.52;100.00;96774.25;4970343;28;20027;-79
2023/01/25 05:58:55;;;;;;;21.80;8.05;;;;;;;-1.55;100.00;96764.25;4979188;28;20031;-79
2023/01/25 06:01:20;;;;;;;20.98;8.30;;;;;;;-1.44;100.00;96767.34;4970414;28;20028;-80
2023/01/25 06:03:47;;;;;;;18.02;7.63;;;;;;;-1.48;100.00;96770.38;4969596;28;20540;-80
2023/01/25 06:06:12;;;;;;;19.05;7.93;;;;;;;-1.47;100.00;96767.63;4952430;28;20055;-80
2023/01/25 06:08:38;;;;;;;20.92;8.18;;;;;;;-1.52;100.00;96758.75;4954987;28;20050;-80
2023/01/25 06:11:12;;;;;;;20.70;7.82;;;;;;;-1.42;100.00;96770.53;4954482;28;20066;-80
2023/01/25 06:13:37;;;;;;;21.58;7.32;;;;;;;-1.45;100.00;96762.31;4957575;28;20078;-80
2023/01/25 06:16:03;;;;;;;18.25;7.43;;;;;;;-1.45;100.00;96759.72;4955314;28;20043;-80
2023/01/25 06:18:30;;;;;;;20.65;8.30;;;;;;;-1.48;100.00;96760.03;4954136;28;20554;-79
2023/01/25 06:20:57;;;;;;;26.08;10.15;;;;;;;-1.51;100.00;96747.47;4953755;28;20094;-80
2023/01/25 06:23:23;;;;;;;23.65;8.32;;;;;;;-1.65;100.00;96744.56;4955295;28;20039;-80
2023/01/25 06:25:49;;;;;;;24.98;8.18;;;;;;;-1.61;100.00;96745.88;4948122;28;20051;-80
2023/01/25 06:28:14;;;;;;;19.90;7.80;;;;;;;-1.58;100.00;96740.38;4955003;28;20036;-79
2023/01/25 06:30:40;;;;;;;26.00;8.52;;;;;;;-1.45;100.00;96750.22;4956910;28;20466;-79
2023/01/25 06:33:06;;;;;;;20.67;8.73;;;;;;;-1.59;100.00;96741.34;4955479;28;20380;-79
2023/01/25 06:35:32;;;;;;;27.70;8.68;;;;;;;-1.55;100.00;96747.00;4972999;28;20090;-79
2023/01/25 06:37:59;;;;;;;22.00;8.35;;;;;;;-1.57;100.00;96748.91;4951093;28;20046;-79
2023/01/25 06:40:27;;;;;;;20.60;7.80;;;;;;;-1.50;100.00;96742.13;4955886;28;20039;-79
2023/01/25 06:42:52;;;;;;;25.58;9.30;;;;;;;-1.54;100.00;96740.84;4955987;28;20043;-80
2023/01/25 06:45:18;;;;;;;16.23;8.07;;;;;;;-1.58;100.00;96750.72;4952427;28;20039;-79
2023/01/25 06:47:47;;;;;;;18.92;7.57;;;;;;;-1.54;100.00;96750.38;4953793;28;20787;-79
2023/01/25 06:50:13;;;;;;;22.00;8.02;;;;;;;-1.57;100.00;96731.69;4953149;28;20043;-79
2023/01/25 06:52:39;;;;;;;20.42;8.07;;;;;;;-1.53;100.00;96741.69;4967445;28;20077;-79
2023/01/25 06:55:07;;;;;;;18.33;7.60;;;;;;;-1.59;100.00;96746.50;4961241;28;20054;-79
2023/01/25 06:57:33;;;;;;;15.23;7.50;;;;;;;-1.57;100.00;96736.84;4952854;28;20043;-80
2023/01/25 06:59:59;;;;;;;17.08;6.95;;;;;;;-1.60;100.00;96726.81;4952543;28;20162;-79
2023/01/25 07:02:25;;;;;;;21.00;7.70;;;;;;;-1.55;100.00;96722.94;4955497;28;20051;-79
2023/01/25 07:04:51;;;;;;;23.05;7.50;;;;;;;-1.60;100.00;96719.06;4974433;28;20048;-81
2023/01/25 07:07:16;;;;;;;16.17;7.35;;;;;;;-1.61;100.00;96703.75;4959200;28;20439;-81
2023/01/25 07:09:42;;;;;;;17.38;7.57;;;;;;;-1.56;100.00;96704.06;4959055;28;20613;-79
2023/01/25 07:12:07;;;;;;;13.35;6.13;;;;;;;-1.62;100.00;96718.44;4957166;28;20542;-79
2023/01/25 07:14:33;;;;;;;18.52;7.28;;;;;;;-1.61;100.00;96714.91;4956210;28;20566;-79
2023/01/25 07:16:58;;;;;;;14.60;6.63;;;;;;;-1.62;100.00;96713.28;4944589;28;20054;-75
2023/01/25 07:19:24;;;;;;;18.15;7.80;;;;;;;-1.60;100.00;96719.06;4945723;28;20051;-80
2023/01/25 07:21:49;;;;;;;15.27;6.55;;;;;;;-1.58;100.00;96714.56;4945042;28;20040;-78
2023/01/25 07:24:17;;;;;;;16.73;7.53;;;;;;;-1.63;100.00;96716.81;4949022;28;20035;-78
2023/01/25 07:26:43;;;;;;;19.83;7.65;;;;;;;-1.57;100.00;96716.19;4954594;28;20047;-77
2023/01/25 07:29:14;;;;;;;21.33;8.52;;;;;;;-1.60;100.00;96716.50;4955103;28;20043;-78
2023/01/25 07:31:40;;;;;;;17.25;7.63;;;;;;;-1.57;100.00;96705.88;4952873;28;20048;-75
2023/01/25 07:34:09;;;;;;;17.10;7.85;;;;;;;-1.63;100.00;96711.66;4954078;28;20043;-78
2023/01/25 07:36:34;;;;;;;19.90;8.13;;;;;;;-1.67;100.00;96710.38;4951540;28;20047;-77
2023/01/25 07:39:00;;;;;;;18.90;7.63;;;;;;;-1.61;100.00;96709.72;4951983;28;20419;-78
2023/01/25 07:41:26;;;;;;;20.98;7.95;;;;;;;-1.58;100.00;96716.31;4952867;28;20039;-76
2023/01/25 07:43:52;;;;;;;19.52;7.57;;;;;;;-1.59;100.00;96712.16;4941646;28;20137;-79
2023/01/25 07:46:18;;;;;;;18.33;8.35;;;;;;;-1.60;100.00;96711.31;4954710;28;20054;-78
2023/01/25 07:48:48;;;;;;;17.25;6.57;;;;;;;-1.47;100.00;96715.19;4970286;28;20122;-77
2023/01/25 07:51:28;;;;;;;19.70;7.68;;;;;;;-1.53;100.00;96710.69;4970577;28;20046;-76
2023/01/25 07:53:56;;;;;;;17.88;7.97;;;;;;;-1.46;100.00;96716.81;4955229;28;20047;-74
2023/01/25 07:56:25;;;;;;;18.73;7.25;;;;;;;-1.53;100.00;96715.84;4952762;28;20043;-76
2023/01/25 07:58:55;;;;;;;20.45;8.30;;;;;;;-1.53;100.00;96711.50;4945852;28;20062;-76
2023/01/25 08:01:23;;;;;;;20.63;7.47;;;;;;;-1.44;100.00;96710.53;4948933;28;20051;-77
2023/01/25 08:03:49;;;;;;;19.48;7.53;;;;;;;-1.47;100.00;96715.19;4950301;28;20359;-77
2023/01/25 08:06:16;;;;;;;20.13;7.65;;;;;;;-1.46;100.00;96716.81;4952116;28;20047;-77
2023/01/25 08:08:45;;;;;;;19.55;8.00;;;;;;;-1.49;100.00;96722.31;4964146;28;20044;-77
2023/01/25 08:11:14;;;;;;;15.02;6.65;;;;;;;-1.48;100.00;96724.72;4964691;28;20073;-77
2023/01/25 08:13:40;;;;;;;18.42;7.72;;;;;;;-1.49;100.00;96711.97;4953778;28;20435;-77
2023/01/25 08:16:06;;;;;;;17.40;7.43;;;;;;;-1.49;100.00;96719.72;4952468;28;20054;-77
2023/01/25 08:18:32;;;;;;;16.17;6.78;;;;;;;-1.41;100.00;96722.28;4953897;28;20043;-76
2023/01/25 08:20:59;;;;;;;19.80;6.43;;;;;;;-1.45;100.00;96718.41;4952487;28;20036;-77
2023/01/25 08:23:25;;;;;;;16.67;6.95;;;;;;;-1.40;100.00;96711.00;4958051;28;20039;-77
2023/01/25 08:25:50;;;;;;;17.23;7.18;;;;;;;-1.51;100.00;96709.53;4959462;28;20043;-77
2023/01/25 08:28:16;;;;;;;13.27;6.63;;;;;;;-1.45;100.00;96713.25;4958605;28;20086;-78
2023/01/25 08:30:41;;;;;;;16.65;6.53;;;;;;;-1.49;100.00;96706.81;4961719;28;20502;-78
2023/01/25 08:33:07;;;;;;;15.98;6.45;;;;;;;-1.43;100.00;96706.94;4964098;28;20063;-77
2023/01/25 08:35:35;;;;;;;16.45;6.75;;;;;;;-1.38;100.00;96714.19;4965051;28;20035;-79
2023/01/25 08:38:01;;;;;;;16.25;6.88;;;;;;;-1.50;100.00;96705.19;4952154;28;20533;-78
2023/01/25 08:40:26;;;;;;;16.92;6.60;;;;;;;-1.47;100.00;96704.88;4953093;28;20046;-77
2023/01/25 08:42:52;;;;;;;19.85;7.30;;;;;;;-1.44;100.00;96700.19;4951240;28;20051;-77
2023/01/25 08:45:18;;;;;;;20.60;8.10;;;;;;;-1.38;100.00;96706.44;4950763;28;20044;-76
2023/01/25 08:47:43;;;;;;;14.63;6.97;;;;;;;-1.37;100.00;96695.16;4966547;28;20046;-77
2023/01/25 08:50:09;;;;;;;16.50;7.03;;;;;;;-1.36;100.00;96701.94;4956927;28;20049;-77
2023/01/25 08:52:35;;;;;;;17.33;7.68;;;;;;;-1.45;100.00;96708.09;4954173;28;20039;-77
2023/01/25 08:55:00;;;;;;;19.42;7.82;;;;;;;-1.45;100.00;96697.75;4957134;28;20039;-78
2023/01/25 08:57:26;;;;;;;18.38;6.88;;;;;;;-1.37;100.00;96700.31;4954164;28;20040;-78
2023/01/25 08:59:51;;;;;;;16.95;6.97;;;;;;;-1.40;100.00;96700.66;4959491;28;20047;-76
2023/01/25 09:02:18;;;;;;;17.88;7.18;;;;;;;-1.45;100.00;96698.56;4961421;28;20058;-78
2023/01/25 09:04:43;;;;;;;17.58;7.10;;;;;;;-1.53;100.00;96690.03;4962225;28;20653;-79
2023/01/25 09:07:09;;;;;;;22.42;7.82;;;;;;;-1.53;100.00;96684.88;4961779;28;20099;-78
2023/01/25 09:09:34;;;;;;;18.05;6.80;;;;;;;-1.42;100.00;96681.97;4960044;28;20036;-78
2023/01/25 09:12:00;;;;;;;22.65;8.98;;;;;;;-1.43;100.00;96680.34;4960976;28;20043;-78
2023/01/25 09:14:26;;;;;;;17.42;7.75;;;;;;;-1.41;100.00;96680.97;4964573;28;20039;-77
2023/01/25 09:16:51;;;;;;;18.60;8.02;;;;;;;-1.39;100.00;96671.28;4958661;28;20035;-78
2023/01/25 09:19:17;;;;;;;19.35;8.05;;;;;;;-1.41;100.00;96673.22;4957343;28;20043;-77
2023/01/25 09:21:42;;;;;;;16.17;7.43;;;;;;;-1.38;100.00;96678.03;4958512;28;20574;-79
2023/01/25 09:24:08;;;;;;;20.13;8.38;;;;;;;-1.42;100.00;96681.97;4955587;28;20570;-78
2023/01/25 09:26:38;;;;;;;18.58;7.78;;;;;;;-1.42;100.00;96682.75;4953799;28;20050;-78
2023/01/25 09:29:06;;;;;;;20.58;7.95;;;;;;;-1.44;100.00;96671.78;4956992;28;20063;-78
2023/01/25 09:31:32;;;;;;;17.65;7.85;;;;;;;-1.37;100.00;96673.72;4952931;28;20043;-81
2023/01/25 09:33:57;;;;;;;18.40;8.07;;;;;;;-1.34;100.00;96679.34;4954319;28;20050;-79
2023/01/25 09:36:23;;;;;;;22.48;8.57;;;;;;;-1.38;100.00;96683.22;4956727;28;20115;-79
2023/01/25 09:38:49;;;;;;;18.27;8.68;;;;;;;-1.33;100.00;96680.97;4951124;28;20059;-79
2023/01/25 09:41:21;;;;;;;21.50;8.68;;;;;;;-1.32;100.00;96681.75;4954788;28;20454;-78
2023/01/25 09:43:53;;;;;;;21.55;9.40;;;;;;;-1.36;100.00;96680.50;4952136;28;20039;-78
2023/01/25 09:46:40;;;;;;;22.95;8.55;;;;;;;-1.35;100.00;96670.00;4954974;28;20515;-79
2023/01/25 09:49:30;;;;;;;20.92;9.15;;;;;;;-1.34;100.00;96674.16;4949948;28;20043;-79
2023/01/25 09:52:01;;;;;;;20.55;8.52;;;;;;;-1.41;100.00;96668.88;4948353;28;20450;-81
2023/01/25 09:54:30;;;;;;;20.95;8.60;;;;;;;-1.38;100.00;96672.88;4945811;28;20137;-77
2023/01/25 09:56:58;;;;;;;22.33;8.30;;;;;;;-1.45;100.00;96666.78;4948457;28;20521;-79
2023/01/25 09:59:29;;;;;;;23.35;8.48;;;;;;;-1.41;100.00;96678.38;4954003;28;20047;-78
2023/01/25 10:02:16;;;;;;;21.13;8.65;;;;;;;-1.31;100.00;96668.66;4952091;28;20048;-78
2023/01/25 10:04:44;;;;;;;19.02;7.57;;;;;;;-1.36;100.00;96665.78;4954724;28;20133;-79
2023/01/25 10:07:33;;;;;;;23.00;8.15;;;;;;;-1.29;100.00;96659.00;4957170;28;20040;-80
2023/01/25 10:10:02;;;;;;;20.15;7.40;;;;;;;-1.35;100.00;96651.09;4956801;28;20058;-79
2023/01/25 10:12:35;;;;;;;19.35;8.13;;;;;;;-1.28;100.00;96647.69;4954940;28;20126;-76
2023/01/25 10:15:00;;;;;;;23.67;8.30;;;;;;;-1.33;100.00;96649.97;4956063;28;20067;-80
2023/01/25 10:17:36;;;;;;;22.25;7.88;;;;;;;-1.49;100.00;96644.84;4955411;28;20043;-79
2023/01/25 10:20:23;;;;;;;19.25;8.55;;;;;;;-1.47;100.00;96650.66;4960192;28;20098;-78
2023/01/25 10:23:21;;;;;;;20.70;8.15;;;;;;;-1.43;100.00;96644.19;4955561;28;20146;-78
2023/01/25 10:25:59;;;;;;;23.15;8.25;;;;;;;-1.41;100.00;96642.22;4937517;28;20051;-78
2023/01/25 10:28:43;;;;;;;21.42;8.63;;;;;;;-1.40;100.00;96638.69;4957538;28;20042;-77
2023/01/25 10:31:18;;;;;;;21.27;9.37;;;;;;;-1.34;100.00;96626.88;4966303;28;20499;-77
2023/01/25 10:33:46;;;;;;;20.42;8.02;;;;;;;-1.42;100.00;96635.47;4957200;28;20047;-77
2023/01/25 10:36:15;;;;;;;18.63;7.43;;;;;;;-1.36;100.00;96629.63;4956410;28;20182;-77
2023/01/25 10:38:47;;;;;;;19.50;8.02;;;;;;;-1.39;100.00;96635.13;4956587;28;20043;-77
2023/01/25 10:41:27;;;;;;;21.85;8.50;;;;;;;-1.32;100.00;96630.91;4954937;28;20538;-78
2023/01/25 10:46:40;;;;;;;17.13;7.47;;;;;;;-1.31;100.00;96614.44;4954120;28;20055;-77
2023/01/25 10:49:32;;;;;;;17.70;7.78;;;;;;;-1.35;100.00;96615.75;4954084;28;20043;-77
2023/01/25 10:52:22;;;;;;;19.92;7.95;;;;;;;-1.29;100.00;96612.50;4956177;28;20047;-78
2023/01/25 10:55:06;;;;;;;17.88;6.85;;;;;;;-1.38;100.00;96604.94;4953603;28;20043;-78
2023/01/25 10:57:33;;;;;;;20.27;7.65;;;;;;;-1.36;100.00;96601.22;4956516;28;20039;-77
2023/01/25 11:00:09;;;;;;;20.95;7.75;;;;;;;-1.37;100.00;96607.38;4952153;28;20048;-76
2023/01/25 11:02:40;;;;;;;19.60;8.52;;;;;;;-1.35;100.00;96595.09;4957687;28;20051;-77
2023/01/25 11:05:18;;;;;;;20.23;8.57;;;;;;;-1.44;100.00;96590.94;4954862;28;20414;-76
2023/01/25 11:07:47;;;;;;;22.48;9.90;;;;;;;-1.40;100.00;96592.22;4954624;28;20139;-77
2023/01/25 11:10:34;;;;;;;22.02;8.43;;;;;;;-1.29;100.00;96583.31;4951873;28;20050;-76
2023/01/25 11:13:12;;;;;;;19.95;7.30;;;;;;;-1.29;100.00;96578.94;4948916;28;20044;-76
2023/01/25 11:15:39;;;;;;;18.75;7.70;;;;;;;-1.34;100.00;96570.88;4952410;28;20098;-77
2023/01/25 11:18:11;;;;;;;22.00;8.93;;;;;;;-1.44;100.00;96565.09;4952135;28;20131;-77
2023/01/25 11:20:36;;;;;;;21.25;8.02;;;;;;;-1.40;100.00;96568.97;4952420;28;20039;-73